createdAt,value
2018-07-20T00:01:33.109Z,53.42
2018-07-20T00:04:02.249Z,53.60
2018-07-20T00:06:29.868Z,54.48
2018-07-20T00:08:57.397Z,53.41
2018-07-20T00:11:24.861Z,53.09
2018-07-20T00:13:52.449Z,53.42
2018-07-20T00:16:22.169Z,53.83
2018-07-20T00:21:39.646Z,54.37
2018-07-20T00:24:07.113Z,55.35
2018-07-20T00:26:34.510Z,54.89
2018-07-20T00:29:01.721Z,54.53
2018-07-20T00:31:28.958Z,55.06
2018-07-20T00:33:56.286Z,55.57
2018-07-20T00:36:25.374Z,55.56
2018-07-20T00:38:53.116Z,55.82
2018-07-20T00:41:20.829Z,56.32
2018-07-20T00:43:48.306Z,56.30
2018-07-20T00:46:15.931Z,55.95
2018-07-20T00:48:43.518Z,55.85
2018-07-20T00:51:11.644Z,56.11
2018-07-20T00:53:39.255Z,55.98
2018-07-20T00:56:06.990Z,56.10
2018-07-20T00:58:34.286Z,55.32
2018-07-20T01:01:01.614Z,55.83
2018-07-20T01:03:28.905Z,55.53
2018-07-20T01:05:56.585Z,55.79
2018-07-20T01:08:24.159Z,55.90
2018-07-20T01:10:51.904Z,56.36
2018-07-20T01:13:19.583Z,56.48
2018-07-20T01:15:47.400Z,57.20
2018-07-20T01:18:14.859Z,57.43
2018-07-20T01:20:42.114Z,57.35
2018-07-20T01:23:09.401Z,57.81
2018-07-20T01:25:36.634Z,57.38
2018-07-20T01:28:03.845Z,57.58
2018-07-20T01:30:31.748Z,57.78
2018-07-20T01:32:59.353Z,57.79
2018-07-20T01:35:26.871Z,57.94
2018-07-20T01:37:54.454Z,58.29
2018-07-20T01:40:21.763Z,59.10
2018-07-20T01:42:49.056Z,59.28
2018-07-20T01:45:16.346Z,59.70
2018-07-20T01:47:43.727Z,59.87
2018-07-20T01:50:12.107Z,59.70
2018-07-20T01:52:39.794Z,59.07
2018-07-20T01:55:07.402Z,59.67
2018-07-20T01:57:34.930Z,59.28
2018-07-20T02:00:02.667Z,59.34
2018-07-20T02:02:30.078Z,59.72
2018-07-20T02:04:57.347Z,59.88
2018-07-20T02:07:24.742Z,59.72
2018-07-20T02:10:01.614Z,60.78
2018-07-20T02:12:28.904Z,61.13
2018-07-20T02:14:56.252Z,61.42
2018-07-20T02:17:23.549Z,61.43
2018-07-20T02:19:50.787Z,61.28
2018-07-20T02:22:18.088Z,61.54
2018-07-20T02:24:45.490Z,61.78
2018-07-20T02:27:13.624Z,61.39
2018-07-20T02:29:41.193Z,61.47
2018-07-20T02:32:08.749Z,62.27
2018-07-20T02:34:36.202Z,62.56
2018-07-20T02:37:03.574Z,62.84
2018-07-20T02:39:30.822Z,63.20
2018-07-20T02:41:58.078Z,63.53
2018-07-20T02:44:25.343Z,63.75
2018-07-20T02:46:52.639Z,63.87
2018-07-20T02:49:20.970Z,64.68
2018-07-20T02:51:48.374Z,64.17
2018-07-20T02:54:18.086Z,65.00
2018-07-20T02:56:45.370Z,65.12
2018-07-20T02:59:12.653Z,64.77
2018-07-20T03:01:40.227Z,65.10
2018-07-20T03:04:07.533Z,64.29
2018-07-20T03:06:34.875Z,64.84
2018-07-20T03:09:02.276Z,64.86
2018-07-20T03:11:29.569Z,65.03
2018-07-20T03:13:57.917Z,65.65
2018-07-20T03:16:25.383Z,66.04
2018-07-20T03:18:53.987Z,66.00
2018-07-20T03:21:23.899Z,66.27
2018-07-20T03:23:52.621Z,66.42
2018-07-20T03:26:20.921Z,66.31
2018-07-20T03:28:48.596Z,66.39
2018-07-20T03:31:16.373Z,66.01
2018-07-20T03:33:43.740Z,66.25
2018-07-20T03:36:11.041Z,66.40
2018-07-20T03:38:38.910Z,66.65
2018-07-20T03:41:06.720Z,66.02
2018-07-20T03:43:34.071Z,65.89
2018-07-20T03:46:01.492Z,65.99
2018-07-20T03:48:29.048Z,65.75
2018-07-20T03:50:56.844Z,65.88
2018-07-20T03:53:24.421Z,65.90
2018-07-20T03:55:51.740Z,65.49
2018-07-20T03:58:19.475Z,65.10
2018-07-20T04:00:49.143Z,65.58
2018-07-20T04:03:18.069Z,65.12
2018-07-20T04:05:47.434Z,65.58
2018-07-20T04:08:14.991Z,65.47
2018-07-20T04:10:43.007Z,65.50
2018-07-20T04:13:11.841Z,65.43
2018-07-20T04:15:39.270Z,64.86
2018-07-20T04:18:07.374Z,64.58
2018-07-20T04:20:34.831Z,64.19
2018-07-20T04:23:02.307Z,64.04
2018-07-20T04:25:30.338Z,63.65
2018-07-20T04:27:57.654Z,63.97
2018-07-20T04:30:24.988Z,63.95
2018-07-20T04:32:52.363Z,63.87
2018-07-20T04:35:20.705Z,63.79
2018-07-20T04:37:48.063Z,63.16
2018-07-20T04:40:15.573Z,63.13
2018-07-20T04:42:42.919Z,62.52
2018-07-20T04:45:10.443Z,62.11
2018-07-20T04:47:37.860Z,61.88
2018-07-20T04:52:39.503Z,61.27
2018-07-20T04:55:06.907Z,60.52
2018-07-20T04:57:35.033Z,60.44
2018-07-20T05:00:02.442Z,60.68
2018-07-20T05:02:30.078Z,59.87
2018-07-20T05:04:58.237Z,58.77
2018-07-20T05:07:26.017Z,57.91
2018-07-20T05:09:53.583Z,57.56
2018-07-20T05:12:22.948Z,56.52
2018-07-20T05:14:50.733Z,56.11
2018-07-20T05:17:21.093Z,55.43
2018-07-20T05:19:49.138Z,55.14
2018-07-20T05:22:16.501Z,54.32
2018-07-20T05:24:43.878Z,53.08
2018-07-20T05:27:11.787Z,51.73
2018-07-20T05:29:39.438Z,50.31
2018-07-20T05:32:07.218Z,49.93
2018-07-20T05:34:35.001Z,48.66
2018-07-20T05:37:02.981Z,48.12
2018-07-20T05:39:31.142Z,47.25
2018-07-20T05:41:58.462Z,46.71
2018-07-20T05:44:25.829Z,45.96
2018-07-20T05:46:53.757Z,44.72
2018-07-20T05:49:21.420Z,44.50
2018-07-20T05:51:49.506Z,43.88
2018-07-20T05:54:17.218Z,43.48
2018-07-20T05:56:45.016Z,43.65
2018-07-20T05:59:12.580Z,43.00
2018-07-20T06:01:40.072Z,42.54
2018-07-20T06:04:07.453Z,41.38
2018-07-20T06:06:34.736Z,41.05
2018-07-20T06:09:02.072Z,41.17
2018-07-20T06:11:30.035Z,40.80
2018-07-20T06:13:57.987Z,40.46
2018-07-20T06:16:25.655Z,40.85
2018-07-20T06:18:53.046Z,40.05
2018-07-20T06:21:20.462Z,39.52
2018-07-20T06:23:47.910Z,38.97
2018-07-20T06:26:16.122Z,37.63
2018-07-20T06:28:43.836Z,36.82
2018-07-20T06:31:11.517Z,35.93
2018-07-20T06:33:39.225Z,35.43
2018-07-20T06:36:06.679Z,35.03
2018-07-20T06:38:34.026Z,34.17
2018-07-20T06:41:01.625Z,33.99
2018-07-20T06:43:29.549Z,33.58
2018-07-20T06:45:57.500Z,33.05
2018-07-20T06:48:25.637Z,33.25
2018-07-20T06:51:02.559Z,33.36
2018-07-20T06:53:39.031Z,32.75
2018-07-20T06:56:06.409Z,32.47
2018-07-20T06:58:33.806Z,32.30
2018-07-20T07:01:01.146Z,31.44
2018-07-20T07:03:28.455Z,31.58
2018-07-20T07:05:56.382Z,30.60
2018-07-20T07:08:24.722Z,31.07
2018-07-20T07:10:52.451Z,31.19
2018-07-20T07:13:21.438Z,31.01
2018-07-20T07:15:48.806Z,31.07
2018-07-20T07:18:16.115Z,30.79
2018-07-20T07:20:43.486Z,30.09
2018-07-20T07:23:11.155Z,28.97
2018-07-20T07:25:38.835Z,29.32
2018-07-20T07:28:06.197Z,29.04
2018-07-20T07:30:33.555Z,28.66
2018-07-20T07:33:00.900Z,28.59
2018-07-20T07:35:28.243Z,29.42
2018-07-20T07:37:56.015Z,28.57
2018-07-20T07:40:23.492Z,29.00
2018-07-20T07:42:52.002Z,28.64
2018-07-20T07:45:19.921Z,27.83
2018-07-20T07:47:47.323Z,28.94
2018-07-20T07:50:14.681Z,28.03
2018-07-20T07:52:42.381Z,27.93
2018-07-20T07:55:09.706Z,26.73
2018-07-20T07:57:37.022Z,26.65
2018-07-20T08:00:04.878Z,26.05
2018-07-20T08:02:32.212Z,25.32
2018-07-20T08:05:00.051Z,27.22
2018-07-20T08:07:27.327Z,27.26
2018-07-20T08:09:54.784Z,25.89
2018-07-20T08:12:22.037Z,26.68
2018-07-20T08:14:49.343Z,25.30
2018-07-20T08:17:16.668Z,25.21
2018-07-20T08:19:44.321Z,25.86
2018-07-20T08:22:11.616Z,25.74
2018-07-20T08:24:38.965Z,25.24
2018-07-20T08:27:06.375Z,24.39
2018-07-20T08:29:33.616Z,25.42
2018-07-20T08:32:01.492Z,25.02
2018-07-20T08:34:29.509Z,24.23
2018-07-20T08:36:57.082Z,25.21
2018-07-20T08:39:25.011Z,24.30
2018-07-20T08:41:52.352Z,24.34
2018-07-20T08:44:21.918Z,24.33
2018-07-20T08:46:49.355Z,24.91
2018-07-20T08:49:16.699Z,23.31
2018-07-20T08:51:44.008Z,24.11
2018-07-20T08:54:11.345Z,23.46
2018-07-20T08:56:38.707Z,22.93
2018-07-20T08:59:06.340Z,23.01
2018-07-20T09:01:33.620Z,22.97
2018-07-20T09:04:00.941Z,22.44
2018-07-20T09:06:28.465Z,23.37
2018-07-20T09:08:56.516Z,22.11
2018-07-20T09:11:23.878Z,21.49
2018-07-20T09:13:51.344Z,20.74
2018-07-20T09:16:19.352Z,20.74
2018-07-20T09:18:47.052Z,21.70
2018-07-20T09:21:14.746Z,21.84
2018-07-20T09:23:42.039Z,22.16
2018-07-20T09:26:09.754Z,21.63
2018-07-20T09:28:37.477Z,20.02
2018-07-20T09:31:04.859Z,19.43
2018-07-20T09:33:32.178Z,20.68
2018-07-20T09:35:59.494Z,20.25
2018-07-20T09:38:28.026Z,17.98
2018-07-20T09:40:56.158Z,19.22
2018-07-20T09:43:23.651Z,18.73
2018-07-20T09:45:51.557Z,17.57
2018-07-20T09:48:20.020Z,17.50
2018-07-20T09:50:47.547Z,18.43
2018-07-20T09:53:15.056Z,17.66
2018-07-20T09:55:42.480Z,16.83
2018-07-20T09:58:10.015Z,17.30
2018-07-20T10:00:42.100Z,15.84
2018-07-20T10:03:09.554Z,16.75
2018-07-20T10:05:37.976Z,16.68
2018-07-20T10:08:05.516Z,16.55
2018-07-20T10:10:33.636Z,16.96
2018-07-20T10:13:01.640Z,16.15
2018-07-20T10:15:29.006Z,16.03
2018-07-20T10:17:57.093Z,16.75
2018-07-20T10:20:24.426Z,16.18
2018-07-20T10:22:52.361Z,17.02
2018-07-20T10:25:20.323Z,16.70
2018-07-20T10:27:47.648Z,16.30
2018-07-20T10:30:15.595Z,15.29
2018-07-20T10:32:43.048Z,16.16
2018-07-20T10:35:10.517Z,16.31
2018-07-20T10:37:37.891Z,15.47
2018-07-20T10:40:05.368Z,15.76
2018-07-20T10:42:32.668Z,15.80
2018-07-20T10:45:00.019Z,16.41
2018-07-20T10:47:33.970Z,15.87
2018-07-20T10:50:01.466Z,16.35
2018-07-20T10:52:28.913Z,16.23
2018-07-20T10:54:56.258Z,16.49
2018-07-20T10:57:24.362Z,16.61
2018-07-20T10:59:51.767Z,15.93
2018-07-20T11:02:19.745Z,16.83
2018-07-20T11:04:47.664Z,16.67
2018-07-20T11:07:15.027Z,16.62
2018-07-20T11:09:42.722Z,17.96
2018-07-20T11:12:10.073Z,17.06
2018-07-20T11:14:37.350Z,16.80
2018-07-20T11:17:04.920Z,17.58
2018-07-20T11:19:32.269Z,15.92
2018-07-20T11:22:00.124Z,15.75
2018-07-20T11:24:28.301Z,16.04
2018-07-20T11:26:55.681Z,15.44
2018-07-20T11:29:23.006Z,15.15
2018-07-20T11:31:50.338Z,14.92
2018-07-20T11:34:17.669Z,14.53
2018-07-20T11:36:45.020Z,14.45
2018-07-20T11:39:12.395Z,14.48
2018-07-20T11:41:39.811Z,14.90
2018-07-20T11:44:07.480Z,15.68
2018-07-20T11:46:34.866Z,16.87
2018-07-20T11:49:02.194Z,17.28
2018-07-20T11:51:29.542Z,18.31
2018-07-20T11:53:56.940Z,18.26
2018-07-20T11:56:24.479Z,16.71
2018-07-20T11:58:51.796Z,17.13
2018-07-20T12:01:19.896Z,18.16
2018-07-20T12:03:49.203Z,18.09
2018-07-20T12:06:16.613Z,17.26
2018-07-20T12:08:43.977Z,16.95
2018-07-20T12:11:11.592Z,15.94
2018-07-20T12:13:38.978Z,16.16
2018-07-20T12:16:06.478Z,16.61
2018-07-20T12:18:33.855Z,15.42
2018-07-20T12:21:01.763Z,15.18
2018-07-20T12:23:29.124Z,14.91
2018-07-20T12:25:57.562Z,15.09
2018-07-20T12:28:24.903Z,15.84
2018-07-20T12:30:52.781Z,15.17
2018-07-20T12:33:20.227Z,16.10
2018-07-20T12:35:47.545Z,15.17
2018-07-20T12:38:14.874Z,15.70
2018-07-20T12:40:42.239Z,15.36
2018-07-20T12:43:09.600Z,15.52
2018-07-20T12:45:36.956Z,15.54
2018-07-20T12:48:04.437Z,15.72
2018-07-20T12:50:31.817Z,15.35
2018-07-20T12:53:00.228Z,14.86
2018-07-20T12:55:27.921Z,14.80
2018-07-20T12:57:55.273Z,15.07
2018-07-20T13:00:34.269Z,15.82
2018-07-20T13:03:13.093Z,16.52
2018-07-20T13:05:55.714Z,16.94
2018-07-20T13:08:26.454Z,16.42
2018-07-20T13:10:59.268Z,16.47
2018-07-20T13:13:28.339Z,17.21
2018-07-20T13:16:02.235Z,17.40
2018-07-20T13:18:35.231Z,17.00
2018-07-20T13:21:07.142Z,16.89
2018-07-20T13:23:42.507Z,16.41
2018-07-20T13:26:20.024Z,16.36
2018-07-20T13:28:49.790Z,16.23
2018-07-20T13:31:17.341Z,16.67
2018-07-20T13:33:44.710Z,16.57
2018-07-20T13:36:12.019Z,16.48
2018-07-20T13:38:39.444Z,16.67
2018-07-20T13:41:06.799Z,16.62
2018-07-20T13:43:34.124Z,16.60
2018-07-20T13:46:01.616Z,16.56
2018-07-20T13:48:29.009Z,17.16
2018-07-20T13:51:04.027Z,17.72
2018-07-20T13:53:31.880Z,16.99
2018-07-20T13:55:59.412Z,17.28
2018-07-20T13:58:27.257Z,16.96
2018-07-20T14:00:55.855Z,17.05
2018-07-20T14:03:23.679Z,17.91
2018-07-20T14:05:51.494Z,17.38
2018-07-20T14:08:20.136Z,18.00
2018-07-20T14:10:47.536Z,17.73
2018-07-20T14:13:14.882Z,18.23
2018-07-20T14:15:42.831Z,18.35
2018-07-20T14:18:11.001Z,18.76
2018-07-20T14:20:38.763Z,18.53
2018-07-20T14:23:06.920Z,18.76
2018-07-20T14:25:34.210Z,18.29
2018-07-20T14:28:01.524Z,18.40
2018-07-20T14:30:28.906Z,18.46
2018-07-20T14:32:56.312Z,18.38
2018-07-20T14:35:23.627Z,18.25
2018-07-20T14:38:13.770Z,17.64
2018-07-20T14:40:41.146Z,18.53
2018-07-20T14:43:08.451Z,18.10
2018-07-20T14:45:35.817Z,18.09
2018-07-20T14:48:03.958Z,17.69
2018-07-20T14:50:31.371Z,18.35
2018-07-20T14:52:58.911Z,18.68
2018-07-20T14:55:26.811Z,19.54
2018-07-20T14:57:54.320Z,20.08
2018-07-20T15:00:21.709Z,20.24
2018-07-20T15:02:49.465Z,20.92
2018-07-20T15:05:16.860Z,19.95
2018-07-20T15:07:44.234Z,20.44
2018-07-20T15:10:11.782Z,20.26
2018-07-20T15:12:39.363Z,20.16
2018-07-20T15:15:07.689Z,20.39
2018-07-20T15:17:37.360Z,19.85
2018-07-20T15:20:06.903Z,20.49
2018-07-20T15:22:34.754Z,20.10
2018-07-20T15:25:02.852Z,20.18
2018-07-20T15:27:30.712Z,20.31
2018-07-20T15:29:58.749Z,20.47
2018-07-20T15:32:26.057Z,20.08
2018-07-20T15:34:55.578Z,20.56
2018-07-20T15:37:23.043Z,20.85
2018-07-20T15:39:50.336Z,20.62
2018-07-20T15:42:17.691Z,20.60
2018-07-20T15:44:45.084Z,21.44
2018-07-20T15:47:12.584Z,21.83
2018-07-20T15:49:40.003Z,21.85
2018-07-20T15:54:35.664Z,21.72
2018-07-20T15:57:03.227Z,21.64
2018-07-20T15:59:30.821Z,21.82
2018-07-20T16:01:58.359Z,21.83
2018-07-20T16:04:25.812Z,21.63
2018-07-20T16:06:53.243Z,21.79
2018-07-20T16:09:22.778Z,21.83
2018-07-20T16:11:50.257Z,22.31
2018-07-20T16:14:17.558Z,22.17
2018-07-20T16:16:45.448Z,22.05
2018-07-20T16:19:12.936Z,21.65
2018-07-20T16:21:40.244Z,21.64
2018-07-20T16:24:08.180Z,21.56
2018-07-20T16:26:35.556Z,21.88
2018-07-20T16:29:02.864Z,22.07
2018-07-20T16:31:30.194Z,22.36
2018-07-20T16:33:57.490Z,22.06
2018-07-20T16:36:24.854Z,22.51
2018-07-20T16:38:52.191Z,21.90
2018-07-20T16:41:23.043Z,21.81
2018-07-20T16:43:50.426Z,22.11
2018-07-20T16:46:17.901Z,22.08
2018-07-20T16:48:45.862Z,22.32
2018-07-20T16:51:13.548Z,22.42
2018-07-20T16:53:41.061Z,22.21
2018-07-20T16:56:09.154Z,22.28
2018-07-20T16:58:36.513Z,21.94
2018-07-20T17:01:04.032Z,22.08
2018-07-20T17:03:31.713Z,21.89
2018-07-20T17:06:00.068Z,22.70
2018-07-20T17:08:28.581Z,22.48
2018-07-20T17:10:56.685Z,22.55
2018-07-20T17:13:25.116Z,22.33
2018-07-20T17:15:52.633Z,22.71
2018-07-20T17:18:20.021Z,22.54
2018-07-20T17:20:47.360Z,23.05
2018-07-20T17:23:14.744Z,23.07
2018-07-20T17:25:42.073Z,22.54
2018-07-20T17:28:09.414Z,22.85
2018-07-20T17:30:36.751Z,23.23
2018-07-20T17:33:04.903Z,23.40
2018-07-20T17:35:32.691Z,23.74
2018-07-20T17:38:00.050Z,23.64
2018-07-20T17:40:27.411Z,24.29
2018-07-20T17:42:55.856Z,24.02
2018-07-20T17:45:23.161Z,24.14
2018-07-20T17:47:50.480Z,23.86
2018-07-20T17:50:18.247Z,24.27
2018-07-20T17:52:46.317Z,24.07
2018-07-20T17:55:13.919Z,24.37
2018-07-20T17:57:41.620Z,23.82
2018-07-20T18:00:09.135Z,24.43
2018-07-20T18:02:36.666Z,24.07
2018-07-20T18:05:04.275Z,24.14
2018-07-20T18:07:31.937Z,24.35
2018-07-20T18:09:59.283Z,24.57
2018-07-20T18:12:27.360Z,24.51
2018-07-20T18:14:55.437Z,24.53
2018-07-20T18:17:22.759Z,24.55
2018-07-20T18:19:50.068Z,24.75
2018-07-20T18:22:17.441Z,25.47
2018-07-20T18:24:44.736Z,25.24
2018-07-20T18:27:12.178Z,25.93
2018-07-20T18:29:39.637Z,25.87
2018-07-20T18:32:06.998Z,25.89
2018-07-20T18:34:36.033Z,26.00
2018-07-20T18:37:05.334Z,26.26
2018-07-20T18:39:32.681Z,27.12
2018-07-20T18:42:00.107Z,26.93
2018-07-20T18:44:29.050Z,27.69
2018-07-20T18:46:56.591Z,28.83
2018-07-20T18:49:23.874Z,29.56
2018-07-20T18:51:51.200Z,30.09
2018-07-20T18:54:19.987Z,30.74
2018-07-20T18:56:47.237Z,31.20
2018-07-20T18:59:14.467Z,31.58
2018-07-20T19:01:41.807Z,31.16
2018-07-20T19:04:09.122Z,31.28
2018-07-20T19:06:36.460Z,31.35
2018-07-20T19:09:06.094Z,31.49
2018-07-20T19:11:34.448Z,31.81
2018-07-20T19:14:02.046Z,31.66
2018-07-20T19:16:30.038Z,31.26
2018-07-20T19:18:58.205Z,31.00
2018-07-20T19:21:26.570Z,31.76
2018-07-20T19:23:54.125Z,32.24
2018-07-20T19:26:22.196Z,32.00
2018-07-20T19:28:50.858Z,32.79
2018-07-20T19:31:20.722Z,32.59
2018-07-20T19:33:49.901Z,32.48
2018-07-20T19:36:18.977Z,32.85
2018-07-20T19:38:47.070Z,33.00
2018-07-20T19:41:14.487Z,33.68
2018-07-20T19:43:41.898Z,33.69
2018-07-20T19:46:09.903Z,34.15
2018-07-20T19:48:37.366Z,34.51
2018-07-20T19:51:05.309Z,34.16
2018-07-20T19:53:33.652Z,34.33
2018-07-20T19:56:02.161Z,34.26
2018-07-20T19:58:30.312Z,34.42
2018-07-20T20:00:57.889Z,34.49
2018-07-20T20:03:28.959Z,34.14
2018-07-20T20:05:56.980Z,34.40
2018-07-20T20:08:24.720Z,34.03
2018-07-20T20:10:52.672Z,34.10
2018-07-20T20:13:20.167Z,34.35
2018-07-20T20:15:47.904Z,34.21
2018-07-20T20:18:26.679Z,34.29
2018-07-20T20:21:02.922Z,34.70
2018-07-20T20:23:39.481Z,34.67
2018-07-20T20:26:07.755Z,35.04
2018-07-20T20:28:35.533Z,34.94
2018-07-20T20:31:03.937Z,34.83
2018-07-20T20:33:31.708Z,34.92
2018-07-20T20:35:59.283Z,35.21
2018-07-20T20:38:26.769Z,35.27
2018-07-20T20:40:54.388Z,35.45
2018-07-20T20:43:21.817Z,35.12
2018-07-20T20:45:49.216Z,35.05
2018-07-20T20:48:16.589Z,35.35
2018-07-20T20:50:44.374Z,35.56
2018-07-20T20:53:12.559Z,35.54
2018-07-20T20:55:40.874Z,35.25
2018-07-20T20:58:08.252Z,35.28
2018-07-20T21:00:35.686Z,35.58
2018-07-20T21:03:03.127Z,35.54
2018-07-20T21:05:30.393Z,35.40
2018-07-20T21:07:57.681Z,35.45
2018-07-20T21:10:25.010Z,35.99
2018-07-20T21:12:52.359Z,35.75
2018-07-20T21:15:19.649Z,35.71
2018-07-20T21:17:46.929Z,36.17
2018-07-20T21:20:14.219Z,36.29
2018-07-20T21:22:41.521Z,36.50
2018-07-20T21:25:08.781Z,36.50
2018-07-20T21:27:36.006Z,36.34
2018-07-20T21:30:04.154Z,36.29
2018-07-20T21:32:31.462Z,37.02
2018-07-20T21:34:59.102Z,36.70
2018-07-20T21:37:26.469Z,37.01
2018-07-20T21:39:53.859Z,36.93
2018-07-20T21:42:21.314Z,37.20
2018-07-20T21:44:48.752Z,36.99
2018-07-20T21:47:16.151Z,37.28
2018-07-20T21:49:43.850Z,37.33
2018-07-20T21:52:11.415Z,37.32
2018-07-20T21:54:38.688Z,37.41
2018-07-20T21:57:06.011Z,37.76
2018-07-20T21:59:33.247Z,37.67
2018-07-20T22:02:00.582Z,37.94
2018-07-20T22:04:27.837Z,38.38
2018-07-20T22:06:55.164Z,38.40
2018-07-20T22:09:22.520Z,38.39
2018-07-20T22:11:49.850Z,38.20
2018-07-20T22:14:17.271Z,38.48
2018-07-20T22:16:45.199Z,38.54
2018-07-20T22:19:12.588Z,38.88
2018-07-20T22:21:39.994Z,38.89
2018-07-20T22:24:07.359Z,39.15
2018-07-20T22:26:34.611Z,39.09
2018-07-20T22:29:01.881Z,39.17
2018-07-20T22:31:29.127Z,39.36
2018-07-20T22:33:56.414Z,39.15
2018-07-20T22:36:24.593Z,39.37
2018-07-20T22:38:51.840Z,39.49
2018-07-20T22:41:19.098Z,39.37
2018-07-20T22:43:46.743Z,39.16
2018-07-20T22:46:13.988Z,39.15
2018-07-20T22:48:41.262Z,38.75
2018-07-20T22:51:08.503Z,38.72
2018-07-20T22:53:35.760Z,38.72
2018-07-20T22:56:03.014Z,38.74
2018-07-20T22:58:30.272Z,38.67
2018-07-20T23:00:57.560Z,38.85
2018-07-20T23:03:24.791Z,38.77
2018-07-20T23:05:52.046Z,38.79
2018-07-20T23:08:20.301Z,38.77
2018-07-20T23:10:48.165Z,39.48
2018-07-20T23:13:15.511Z,40.21
2018-07-20T23:15:43.011Z,40.84
2018-07-20T23:18:10.419Z,41.20
2018-07-20T23:20:38.241Z,41.66
2018-07-20T23:23:05.550Z,41.90
2018-07-20T23:25:32.971Z,42.26
2018-07-20T23:28:00.540Z,42.60
2018-07-20T23:30:27.875Z,43.11
2018-07-20T23:32:55.207Z,43.21
2018-07-20T23:35:22.515Z,43.48
2018-07-20T23:37:49.763Z,43.63
2018-07-20T23:40:17.120Z,43.57
2018-07-20T23:42:44.339Z,44.09
2018-07-20T23:45:11.618Z,44.23
2018-07-20T23:47:38.851Z,44.59
2018-07-20T23:50:06.138Z,44.77
2018-07-20T23:52:33.385Z,44.88
2018-07-20T23:55:00.662Z,45.23
2018-07-20T23:57:27.925Z,45.41
2018-07-20T23:59:55.217Z,45.58
